Time;durP1;ratioP1;P1;durP2;ratioP2;P2;SDS_P1;SDS_P2;PMS_P1;PMS_P2;Temp;Humidity;BMP_temperature;BMP_pressure;BME280_temperature;BME280_humidity;BME280_pressure;Samples;Min_cycle;Max_cycle;Signal;HPM_P1;HPM_P2
2021/12/06 00:00:39;;;;;;;14.07;5.53;;;;;;;;;;4419589;32;20344;-55
2021/12/06 00:03:08;;;;;;;8.97;5.53;;;;;;;;;;4433834;32;20351;-55
2021/12/06 00:05:34;;;;;;;11.33;5.77;;;;;;;;;;4424085;32;20265;-55
2021/12/06 00:08:00;;;;;;;8.37;4.47;;;;;;;;;;4404338;32;20606;-56
2021/12/06 00:10:26;;;;;;;9.67;5.40;;;;;;;;;;4418138;32;20263;-56
2021/12/06 00:12:51;;;;;;;9.00;4.53;;;;;;;;;;4418080;32;20205;-56
2021/12/06 00:15:17;;;;;;;11.17;5.33;;;;;;;;;;4418596;32;20628;-56
2021/12/06 00:17:42;;;;;;;15.03;8.97;;;;;;;;;;4418552;32;20418;-56
2021/12/06 00:20:11;;;;;;;13.70;7.87;;;;;;;;;;4404236;32;20390;-56
2021/12/06 00:22:37;;;;;;;17.63;9.73;;;;;;;;;;4418391;32;20655;-55
2021/12/06 00:25:04;;;;;;;16.63;7.93;;;;;;;;;;4417816;32;20217;-56
2021/12/06 00:27:30;;;;;;;15.37;6.87;;;;;;;;;;4417841;32;20231;-56
2021/12/06 00:29:55;;;;;;;12.73;6.57;;;;;;;;;;4417918;32;20225;-56
2021/12/06 00:32:22;;;;;;;11.03;6.63;;;;;;;;;;4417686;32;20228;-55
2021/12/06 00:34:47;;;;;;;10.57;6.80;;;;;;;;;;4404328;32;20607;-55
2021/12/06 00:37:23;;;;;;;11.77;6.40;;;;;;;;;;4417773;32;20227;-55
2021/12/06 00:39:57;;;;;;;12.20;7.57;;;;;;;;;;4418081;32;20652;-55
2021/12/06 00:42:26;;;;;;;16.80;7.37;;;;;;;;;;4417498;32;20224;-55
2021/12/06 00:44:52;;;;;;;13.73;9.10;;;;;;;;;;4417906;32;20336;-56
2021/12/06 00:47:18;;;;;;;13.63;7.33;;;;;;;;;;4429875;32;20258;-55
2021/12/06 00:49:47;;;;;;;19.20;7.80;;;;;;;;;;4433255;32;20330;-55
2021/12/06 00:52:14;;;;;;;17.13;8.13;;;;;;;;;;4432896;32;20274;-56
2021/12/06 00:54:40;;;;;;;21.37;12.67;;;;;;;;;;4433748;32;20283;-55
2021/12/06 00:57:09;;;;;;;28.30;14.33;;;;;;;;;;4433465;32;20402;-57
2021/12/06 00:59:35;;;;;;;26.03;13.50;;;;;;;;;;4433543;32;20232;-55
2021/12/06 01:02:02;;;;;;;21.50;7.93;;;;;;;;;;4433094;32;20555;-55
2021/12/06 01:04:30;;;;;;;8.93;5.57;;;;;;;;;;4432720;32;20409;-55
2021/12/06 01:06:57;;;;;;;11.10;4.73;;;;;;;;;;4433153;32;20256;-55
2021/12/06 01:09:22;;;;;;;5.77;4.07;;;;;;;;;;4419415;32;20513;-55
2021/12/06 01:11:48;;;;;;;7.37;4.03;;;;;;;;;;4419450;32;20805;-55
2021/12/06 01:14:13;;;;;;;11.23;5.20;;;;;;;;;;4433373;32;20295;-55
2021/12/06 01:16:39;;;;;;;6.83;4.13;;;;;;;;;;4433063;32;20221;-56
2021/12/06 01:19:05;;;;;;;7.07;5.40;;;;;;;;;;4433369;32;20786;-57
2021/12/06 01:21:47;;;;;;;10.43;5.40;;;;;;;;;;4432959;32;20217;-56
2021/12/06 01:24:16;;;;;;;6.30;4.70;;;;;;;;;;4433342;32;20597;-55
2021/12/06 01:32:35;;;;;;;10.03;4.67;;;;;;;;;;4433123;32;20259;-56
2021/12/06 01:40:29;;;;;;;7.20;3.77;;;;;;;;;;4432891;32;20281;-56
2021/12/06 01:42:55;;;;;;;6.60;4.03;;;;;;;;;;4433056;32;20614;-54
2021/12/06 01:45:21;;;;;;;4.40;3.70;;;;;;;;;;4433161;32;20225;-55
2021/12/06 01:47:46;;;;;;;13.17;3.77;;;;;;;;;;4432681;32;20267;-57
2021/12/06 01:50:22;;;;;;;18.20;4.70;;;;;;;;;;4433118;32;20281;-54
2021/12/06 01:52:50;;;;;;;7.00;4.03;;;;;;;;;;4433234;32;20265;-55
2021/12/06 01:55:26;;;;;;;7.70;4.80;;;;;;;;;;4433312;32;20259;-54
2021/12/06 01:57:53;;;;;;;14.03;3.97;;;;;;;;;;4433614;32;20501;-55
2021/12/06 02:00:31;;;;;;;8.63;5.63;;;;;;;;;;4432978;32;20236;-55
2021/12/06 02:02:58;;;;;;;11.87;7.03;;;;;;;;;;4434738;32;20709;-55
2021/12/06 02:05:23;;;;;;;19.97;9.07;;;;;;;;;;4427758;32;20268;-55
2021/12/06 02:07:49;;;;;;;19.57;10.27;;;;;;;;;;4420530;32;20583;-55
2021/12/06 02:10:15;;;;;;;18.20;10.53;;;;;;;;;;4420355;32;20255;-56
2021/12/06 02:12:41;;;;;;;25.20;10.27;;;;;;;;;;4406262;32;20241;-56
2021/12/06 02:15:54;;;;;;;23.27;9.43;;;;;;;;;;4420266;32;20261;-56
2021/12/06 02:18:05;;;;;;;22.87;9.30;;;;;;;;;;4427219;32;20301;-55
2021/12/06 02:20:36;;;;;;;22.53;10.10;;;;;;;;;;4435752;32;20543;-55
2021/12/06 02:23:02;;;;;;;17.80;10.33;;;;;;;;;;4435730;32;20228;-55
2021/12/06 02:25:28;;;;;;;20.10;10.70;;;;;;;;;;4435764;32;20316;-56
2021/12/06 02:27:55;;;;;;;20.37;9.37;;;;;;;;;;4435702;32;20209;-56
2021/12/06 02:30:21;;;;;;;11.23;6.73;;;;;;;;;;4435310;32;20255;-55
2021/12/06 02:32:49;;;;;;;23.63;7.67;;;;;;;;;;4435500;32;20196;-55
2021/12/06 02:35:19;;;;;;;21.63;8.83;;;;;;;;;;4435234;32;20229;-55
2021/12/06 02:37:45;;;;;;;17.13;9.00;;;;;;;;;;4435548;32;20240;-56
2021/12/06 02:40:18;;;;;;;17.00;8.57;;;;;;;;;;4435369;32;20291;-55
2021/12/06 02:42:46;;;;;;;18.27;8.80;;;;;;;;;;4435031;32;20189;-55
2021/12/06 02:45:13;;;;;;;16.43;8.17;;;;;;;;;;4435150;32;20410;-57
2021/12/06 02:47:40;;;;;;;14.33;8.43;;;;;;;;;;4435036;32;20205;-55
2021/12/06 02:50:08;;;;;;;13.70;7.90;;;;;;;;;;4434963;32;20267;-55
2021/12/06 02:52:34;;;;;;;20.30;8.27;;;;;;;;;;4421261;32;20807;-56
2021/12/06 02:55:02;;;;;;;17.37;9.03;;;;;;;;;;4434907;32;20338;-56
2021/12/06 02:57:36;;;;;;;14.40;8.27;;;;;;;;;;4434862;32;20287;-56
2021/12/06 03:00:09;;;;;;;15.37;8.47;;;;;;;;;;4434767;32;20219;-56
2021/12/06 03:02:34;;;;;;;18.33;9.47;;;;;;;;;;4434719;32;20244;-55
2021/12/06 03:05:00;;;;;;;16.50;8.40;;;;;;;;;;4434216;32;20569;-57
2021/12/06 03:07:28;;;;;;;12.87;7.47;;;;;;;;;;4435092;32;20675;-56
2021/12/06 03:09:55;;;;;;;17.67;7.83;;;;;;;;;;4421089;32;20432;-56
2021/12/06 03:12:24;;;;;;;19.00;9.67;;;;;;;;;;4434369;32;20232;-55
2021/12/06 03:14:54;;;;;;;21.50;9.03;;;;;;;;;;4433909;32;20270;-55
2021/12/06 03:17:23;;;;;;;23.27;9.87;;;;;;;;;;4434736;32;20273;-55
2021/12/06 03:19:48;;;;;;;17.53;9.73;;;;;;;;;;4434560;32;20294;-56
2021/12/06 03:22:16;;;;;;;27.73;12.27;;;;;;;;;;4434648;32;20529;-55
2021/12/06 03:24:42;;;;;;;25.80;11.53;;;;;;;;;;4434839;32;20628;-56
2021/12/06 03:27:08;;;;;;;19.87;10.53;;;;;;;;;;4434292;32;20637;-55
2021/12/06 03:29:34;;;;;;;24.80;13.60;;;;;;;;;;4434399;32;20301;-56
2021/12/06 03:32:01;;;;;;;29.77;14.40;;;;;;;;;;4433055;32;20229;-56
2021/12/06 03:34:26;;;;;;;28.77;15.27;;;;;;;;;;4434441;32;20216;-56
2021/12/06 03:36:57;;;;;;;25.37;14.60;;;;;;;;;;4433943;32;20262;-56
2021/12/06 03:39:29;;;;;;;31.20;14.63;;;;;;;;;;4434087;32;20208;-55
2021/12/06 03:42:00;;;;;;;41.83;22.53;;;;;;;;;;4434041;32;20379;-56
2021/12/06 03:44:27;;;;;;;37.70;19.43;;;;;;;;;;4434647;32;20228;-55
2021/12/06 03:46:59;;;;;;;32.10;17.53;;;;;;;;;;4429963;32;20439;-56
2021/12/06 03:49:25;;;;;;;38.47;19.37;;;;;;;;;;4434299;32;20190;-56
2021/12/06 03:51:51;;;;;;;39.00;18.73;;;;;;;;;;4433915;32;20634;-55
2021/12/06 03:54:20;;;;;;;44.00;22.57;;;;;;;;;;4420233;32;20338;-57
2021/12/06 03:56:47;;;;;;;50.23;19.73;;;;;;;;;;4434365;32;20292;-56
2021/12/06 03:59:12;;;;;;;38.43;19.20;;;;;;;;;;4420267;32;20216;-56
2021/12/06 04:01:39;;;;;;;36.37;18.80;;;;;;;;;;4433956;32;20338;-55
2021/12/06 04:04:07;;;;;;;39.40;18.60;;;;;;;;;;4433725;32;20205;-56
2021/12/06 04:06:33;;;;;;;30.80;15.40;;;;;;;;;;4433374;32;20244;-56
2021/12/06 04:08:59;;;;;;;32.23;16.73;;;;;;;;;;4434141;32;20306;-56
2021/12/06 04:11:25;;;;;;;27.43;16.43;;;;;;;;;;4434124;32;20225;-55
2021/12/06 04:13:50;;;;;;;33.30;16.33;;;;;;;;;;4433836;32;20306;-57
2021/12/06 04:16:16;;;;;;;33.20;16.17;;;;;;;;;;4434059;32;20348;-55
2021/12/06 04:18:42;;;;;;;40.10;17.47;;;;;;;;;;4433936;32;20287;-56
2021/12/06 04:21:09;;;;;;;29.80;16.27;;;;;;;;;;4433609;32;20308;-56
2021/12/06 04:23:35;;;;;;;30.83;16.43;;;;;;;;;;4434038;32;20272;-55
2021/12/06 04:26:02;;;;;;;37.10;19.57;;;;;;;;;;4433945;32;20622;-57
2021/12/06 04:28:30;;;;;;;50.67;24.47;;;;;;;;;;4419809;32;20235;-57
2021/12/06 04:30:56;;;;;;;36.53;20.17;;;;;;;;;;4433731;32;20233;-55
2021/12/06 04:33:21;;;;;;;37.73;20.00;;;;;;;;;;4433595;32;20621;-55
2021/12/06 04:35:47;;;;;;;35.40;18.90;;;;;;;;;;4433210;32;20254;-56
2021/12/06 04:38:13;;;;;;;42.37;22.70;;;;;;;;;;4433213;32;20335;-55
2021/12/06 04:40:39;;;;;;;34.90;19.13;;;;;;;;;;4419708;32;20228;-54
2021/12/06 04:43:05;;;;;;;41.90;21.93;;;;;;;;;;4433423;32;20255;-56
2021/12/06 04:45:31;;;;;;;38.47;19.73;;;;;;;;;;4433283;32;20282;-56
2021/12/06 04:47:57;;;;;;;40.47;21.57;;;;;;;;;;4433308;32;20281;-55
2021/12/06 04:50:26;;;;;;;37.90;18.10;;;;;;;;;;4425589;32;20332;-56
2021/12/06 04:52:54;;;;;;;28.87;18.30;;;;;;;;;;4432865;32;20599;-56
2021/12/06 04:55:45;;;;;;;35.27;18.57;;;;;;;;;;4433273;32;20236;-55
2021/12/06 04:58:18;;;;;;;36.43;17.87;;;;;;;;;;4433167;32;20561;-55
2021/12/06 05:01:16;;;;;;;34.87;19.10;;;;;;;;;;4433673;32;20331;-55
2021/12/06 05:03:42;;;;;;;39.47;19.03;;;;;;;;;;4417874;32;20363;-55
2021/12/06 05:06:17;;;;;;;36.47;19.67;;;;;;;;;;4429952;32;20330;-56
2021/12/06 05:08:49;;;;;;;35.43;18.10;;;;;;;;;;4433695;32;20183;-55
2021/12/06 05:11:15;;;;;;;37.80;18.17;;;;;;;;;;4432982;32;20335;-55
2021/12/06 05:13:44;;;;;;;29.07;17.17;;;;;;;;;;4433444;32;20308;-55
2021/12/06 05:16:10;;;;;;;26.43;16.03;;;;;;;;;;4433422;32;20261;-56
2021/12/06 05:18:35;;;;;;;33.60;16.33;;;;;;;;;;4433519;32;20327;-57
2021/12/06 05:21:02;;;;;;;21.20;13.30;;;;;;;;;;4433204;32;20243;-55
2021/12/06 05:23:28;;;;;;;36.50;18.07;;;;;;;;;;4418995;32;20479;-55
2021/12/06 05:25:53;;;;;;;29.57;14.87;;;;;;;;;;4433288;32;20630;-55
2021/12/06 05:28:23;;;;;;;24.80;15.47;;;;;;;;;;4433384;32;20586;-56
2021/12/06 05:30:53;;;;;;;24.23;15.30;;;;;;;;;;4432846;32;20217;-55
2021/12/06 05:33:28;;;;;;;42.30;20.37;;;;;;;;;;4418938;32;20350;-56
2021/12/06 05:35:54;;;;;;;37.43;19.10;;;;;;;;;;4418757;32;20228;-57
2021/12/06 05:38:19;;;;;;;41.57;21.27;;;;;;;;;;4435271;32;20222;-55
2021/12/06 05:40:47;;;;;;;40.87;21.80;;;;;;;;;;4436096;32;20232;-56
2021/12/06 05:43:13;;;;;;;21.00;11.70;;;;;;;;;;4435287;32;20256;-57
2021/12/06 05:45:39;;;;;;;18.57;10.20;;;;;;;;;;4435546;32;20308;-55
2021/12/06 05:48:05;;;;;;;20.27;9.93;;;;;;;;;;4435339;32;20216;-55
2021/12/06 05:50:31;;;;;;;24.50;10.77;;;;;;;;;;4426727;32;20248;-55
2021/12/06 05:52:57;;;;;;;19.10;10.60;;;;;;;;;;4428672;32;20673;-56
2021/12/06 05:55:29;;;;;;;8.53;4.80;;;;;;;;;;4435255;32;20221;-55
2021/12/06 05:58:00;;;;;;;6.73;4.50;;;;;;;;;;4435300;32;20522;-56
2021/12/06 06:00:29;;;;;;;9.73;4.43;;;;;;;;;;4435223;32;20646;-55
2021/12/06 06:02:55;;;;;;;7.20;4.33;;;;;;;;;;4435043;32;20255;-55
2021/12/06 06:05:21;;;;;;;7.50;4.33;;;;;;;;;;4426984;32;20336;-55
2021/12/06 06:07:47;;;;;;;8.57;4.00;;;;;;;;;;4420126;32;20197;-56
2021/12/06 06:10:13;;;;;;;7.40;4.00;;;;;;;;;;4419994;32;20221;-56
2021/12/06 06:12:39;;;;;;;7.60;4.63;;;;;;;;;;4406436;32;20314;-57
2021/12/06 06:15:05;;;;;;;8.23;3.10;;;;;;;;;;4419068;32;20260;-56
2021/12/06 06:17:39;;;;;;;10.43;4.97;;;;;;;;;;4429703;32;20209;-56
2021/12/06 06:20:06;;;;;;;5.30;2.83;;;;;;;;;;4426276;32;20290;-55
2021/12/06 06:22:32;;;;;;;13.57;3.53;;;;;;;;;;4435296;32;20251;-57
2021/12/06 06:24:57;;;;;;;10.53;4.97;;;;;;;;;;4425216;32;20601;-56
2021/12/06 06:27:23;;;;;;;6.10;4.47;;;;;;;;;;4424413;32;20259;-56
2021/12/06 06:29:48;;;;;;;8.50;4.10;;;;;;;;;;4436060;32;20284;-56
2021/12/06 06:32:14;;;;;;;11.77;5.57;;;;;;;;;;4431828;32;20241;-56
2021/12/06 06:34:39;;;;;;;12.50;5.77;;;;;;;;;;4425030;32;20268;-57
2021/12/06 06:37:05;;;;;;;15.50;5.27;;;;;;;;;;4437321;32;20272;-57
2021/12/06 06:39:30;;;;;;;10.13;6.40;;;;;;;;;;4425757;32;20735;-57
2021/12/06 06:41:56;;;;;;;11.07;5.40;;;;;;;;;;4435604;32;20273;-57
2021/12/06 06:44:22;;;;;;;10.30;6.03;;;;;;;;;;4435366;32;20639;-57
2021/12/06 06:46:48;;;;;;;12.97;5.37;;;;;;;;;;4434958;32;20220;-57
2021/12/06 06:49:14;;;;;;;11.13;5.20;;;;;;;;;;4434246;32;20367;-56
2021/12/06 06:51:41;;;;;;;9.40;6.03;;;;;;;;;;4436336;32;20673;-56
2021/12/06 06:54:06;;;;;;;10.37;5.77;;;;;;;;;;4450567;32;20310;-56
2021/12/06 06:56:33;;;;;;;8.03;5.40;;;;;;;;;;4450634;32;20644;-56
2021/12/06 06:58:58;;;;;;;11.00;6.07;;;;;;;;;;4450997;32;20276;-57
2021/12/06 07:01:24;;;;;;;20.73;6.40;;;;;;;;;;4449313;32;20307;-57
2021/12/06 07:03:54;;;;;;;9.53;5.77;;;;;;;;;;4433838;32;20313;-56
2021/12/06 07:06:24;;;;;;;11.67;6.37;;;;;;;;;;4432639;32;20825;-57
2021/12/06 07:08:51;;;;;;;7.07;4.70;;;;;;;;;;4428574;32;20270;-56
2021/12/06 07:11:18;;;;;;;7.70;4.73;;;;;;;;;;4417817;32;20740;-56
2021/12/06 07:13:43;;;;;;;12.03;4.57;;;;;;;;;;4417738;32;20458;-57
2021/12/06 07:16:10;;;;;;;4.80;3.60;;;;;;;;;;4425781;32;20232;-57
2021/12/06 07:18:36;;;;;;;12.17;5.93;;;;;;;;;;4433540;32;20262;-56
2021/12/06 07:21:02;;;;;;;14.17;6.57;;;;;;;;;;4435266;32;20581;-56
2021/12/06 07:23:27;;;;;;;22.70;7.53;;;;;;;;;;4434110;32;20292;-57
2021/12/06 07:25:53;;;;;;;17.77;8.03;;;;;;;;;;4435139;32;20307;-57
2021/12/06 07:28:18;;;;;;;8.90;5.17;;;;;;;;;;4434750;32;20235;-56
2021/12/06 07:30:44;;;;;;;19.83;8.30;;;;;;;;;;4435031;32;20236;-57
2021/12/06 07:33:10;;;;;;;16.40;6.67;;;;;;;;;;4435000;32;20230;-56
2021/12/06 07:35:35;;;;;;;10.00;5.43;;;;;;;;;;4434943;32;20224;-57
2021/12/06 07:38:03;;;;;;;17.50;7.07;;;;;;;;;;4435050;32;20235;-57
2021/12/06 07:40:30;;;;;;;14.23;5.17;;;;;;;;;;4434315;32;20729;-57
2021/12/06 07:42:57;;;;;;;9.23;5.40;;;;;;;;;;4429612;32;20307;-56
2021/12/06 07:45:22;;;;;;;9.43;5.53;;;;;;;;;;4418095;32;20275;-57
2021/12/06 07:47:48;;;;;;;15.63;7.57;;;;;;;;;;4418205;32;20648;-57
2021/12/06 07:50:17;;;;;;;14.97;8.30;;;;;;;;;;4424909;32;20499;-57
2021/12/06 07:52:43;;;;;;;16.23;6.03;;;;;;;;;;4433643;32;20278;-58
2021/12/06 07:55:12;;;;;;;16.40;7.83;;;;;;;;;;4433608;32;20553;-56
2021/12/06 07:57:38;;;;;;;13.13;6.40;;;;;;;;;;4433912;32;20205;-57
2021/12/06 08:00:10;;;;;;;20.47;9.40;;;;;;;;;;4433832;32;20228;-57
2021/12/06 08:02:36;;;;;;;14.60;7.50;;;;;;;;;;4433754;32;20668;-57
2021/12/06 08:07:48;;;;;;;15.67;8.00;;;;;;;;;;4433377;32;20239;-55
2021/12/06 08:10:13;;;;;;;13.53;7.80;;;;;;;;;;4432467;32;20673;-57
2021/12/06 08:12:39;;;;;;;14.40;6.87;;;;;;;;;;4432924;32;20290;-57
2021/12/06 08:15:05;;;;;;;15.03;8.00;;;;;;;;;;4429145;32;20293;-57
2021/12/06 08:17:31;;;;;;;14.97;9.23;;;;;;;;;;4428313;32;20272;-58
2021/12/06 08:19:56;;;;;;;9.63;5.97;;;;;;;;;;4428282;32;20245;-58
2021/12/06 08:22:22;;;;;;;12.13;5.73;;;;;;;;;;4417860;32;20637;-57
2021/12/06 08:24:47;;;;;;;7.57;4.90;;;;;;;;;;4428255;32;20283;-58
2021/12/06 08:27:13;;;;;;;9.97;5.27;;;;;;;;;;4419002;32;20305;-58
2021/12/06 08:29:39;;;;;;;12.70;6.27;;;;;;;;;;4433500;32;20638;-58
2021/12/06 08:32:05;;;;;;;17.63;8.00;;;;;;;;;;4433416;32;20213;-57
2021/12/06 08:34:31;;;;;;;13.43;6.83;;;;;;;;;;4418726;32;20327;-55
2021/12/06 08:36:56;;;;;;;21.20;9.00;;;;;;;;;;4433116;32;20293;-55
2021/12/06 08:39:22;;;;;;;14.30;8.37;;;;;;;;;;4433096;32;20383;-57
2021/12/06 08:41:47;;;;;;;14.43;7.47;;;;;;;;;;4433498;32;20489;-56
2021/12/06 08:44:14;;;;;;;17.47;9.97;;;;;;;;;;4429659;32;20314;-56
2021/12/06 08:46:39;;;;;;;12.17;7.50;;;;;;;;;;4417501;32;20277;-56
2021/12/06 08:49:08;;;;;;;11.47;7.23;;;;;;;;;;4417439;32;20390;-56
2021/12/06 08:51:48;;;;;;;11.27;7.20;;;;;;;;;;4430629;32;20249;-57
2021/12/06 08:54:16;;;;;;;11.33;6.37;;;;;;;;;;4432731;32;20265;-56
2021/12/06 08:56:42;;;;;;;12.60;8.20;;;;;;;;;;4433905;32;20253;-56
2021/12/06 08:59:08;;;;;;;107.00;68.63;;;;;;;;;;4433398;32;20276;-56
2021/12/06 09:01:35;;;;;;;95.30;47.53;;;;;;;;;;4432398;32;20252;-56
2021/12/06 09:04:01;;;;;;;13.67;9.53;;;;;;;;;;4433111;32;20549;-57
2021/12/06 09:06:27;;;;;;;39.47;23.47;;;;;;;;;;4431881;32;20236;-58
2021/12/06 09:08:54;;;;;;;8.03;5.30;;;;;;;;;;4433127;32;20728;-57
2021/12/06 09:11:21;;;;;;;18.30;12.43;;;;;;;;;;4433337;32;20289;-56
2021/12/06 09:13:46;;;;;;;13.20;7.70;;;;;;;;;;4433742;32;20687;-56
2021/12/06 09:16:14;;;;;;;15.27;10.63;;;;;;;;;;4433177;32;20423;-56
2021/12/06 09:18:42;;;;;;;19.17;8.13;;;;;;;;;;4433444;32;20240;-56
2021/12/06 09:21:11;;;;;;;18.10;8.03;;;;;;;;;;4432795;32;20216;-56
2021/12/06 09:23:36;;;;;;;48.67;31.60;;;;;;;;;;4433346;32;20212;-56
2021/12/06 09:26:03;;;;;;;72.77;44.70;;;;;;;;;;4419548;32;20386;-57
2021/12/06 09:28:31;;;;;;;15.13;9.40;;;;;;;;;;4432890;32;20333;-56
2021/12/06 09:30:56;;;;;;;53.30;36.10;;;;;;;;;;4433266;32;20687;-56
2021/12/06 09:33:22;;;;;;;15.17;7.70;;;;;;;;;;4433090;32;20193;-56
2021/12/06 09:35:49;;;;;;;19.03;9.33;;;;;;;;;;4433041;32;20515;-57
2021/12/06 09:38:18;;;;;;;17.07;10.57;;;;;;;;;;4432984;32;20250;-56
2021/12/06 09:40:46;;;;;;;12.00;5.30;;;;;;;;;;4433186;32;20252;-57
2021/12/06 09:43:14;;;;;;;8.97;5.03;;;;;;;;;;4432978;32;20236;-59
2021/12/06 09:45:42;;;;;;;25.23;13.37;;;;;;;;;;4433675;32;20267;-57
2021/12/06 09:48:09;;;;;;;13.77;5.90;;;;;;;;;;4433087;32;20227;-56
2021/12/06 09:50:42;;;;;;;8.67;6.30;;;;;;;;;;4432684;32;20267;-56
2021/12/06 09:53:10;;;;;;;15.90;10.50;;;;;;;;;;4433679;32;20495;-57
2021/12/06 09:55:38;;;;;;;6.93;4.90;;;;;;;;;;4418341;32;20216;-56
2021/12/06 09:58:05;;;;;;;8.87;6.07;;;;;;;;;;4417488;32;20232;-56
2021/12/06 10:00:35;;;;;;;20.10;9.67;;;;;;;;;;4417586;32;20246;-56
2021/12/06 10:03:00;;;;;;;21.43;13.53;;;;;;;;;;4428001;32;20353;-56
2021/12/06 10:05:29;;;;;;;23.03;15.67;;;;;;;;;;4431023;32;20236;-56
2021/12/06 10:07:57;;;;;;;24.80;14.97;;;;;;;;;;4431604;32;20585;-57
2021/12/06 10:10:25;;;;;;;24.73;15.33;;;;;;;;;;4417890;32;20241;-56
2021/12/06 10:12:52;;;;;;;17.10;9.93;;;;;;;;;;4417461;32;20217;-57
2021/12/06 10:15:19;;;;;;;25.40;13.33;;;;;;;;;;4432725;32;20666;-56
2021/12/06 10:17:45;;;;;;;26.20;16.07;;;;;;;;;;4433290;32;20212;-57
2021/12/06 10:20:11;;;;;;;33.77;18.60;;;;;;;;;;4432965;32;20224;-56
2021/12/06 10:22:37;;;;;;;32.97;15.20;;;;;;;;;;4418928;32;20259;-57
2021/12/06 10:25:05;;;;;;;23.93;13.00;;;;;;;;;;4435349;32;20302;-56
2021/12/06 10:27:31;;;;;;;16.20;9.27;;;;;;;;;;4434186;32;20205;-57
2021/12/06 10:30:08;;;;;;;16.73;7.50;;;;;;;;;;4434134;32;20240;-55
2021/12/06 10:32:36;;;;;;;9.47;5.73;;;;;;;;;;4434311;32;20205;-56
2021/12/06 10:35:11;;;;;;;16.40;6.03;;;;;;;;;;4434446;32;20225;-55
2021/12/06 10:37:55;;;;;;;16.60;8.27;;;;;;;;;;4435513;32;20672;-57
2021/12/06 10:40:33;;;;;;;13.80;8.73;;;;;;;;;;4435283;32;20274;-56
2021/12/06 10:43:02;;;;;;;14.27;9.17;;;;;;;;;;4418526;32;20685;-58
2021/12/06 10:45:35;;;;;;;16.80;10.83;;;;;;;;;;4405464;32;20550;-56
2021/12/06 10:48:09;;;;;;;15.27;9.40;;;;;;;;;;4406070;32;20248;-57
2021/12/06 10:50:37;;;;;;;30.30;16.37;;;;;;;;;;4419690;32;20272;-56
2021/12/06 10:53:04;;;;;;;29.77;19.77;;;;;;;;;;4419714;32;20198;-57
2021/12/06 10:55:32;;;;;;;28.60;18.57;;;;;;;;;;4433113;32;20718;-56
2021/12/06 10:58:02;;;;;;;25.97;13.90;;;;;;;;;;4435358;32;20197;-56
2021/12/06 11:00:28;;;;;;;20.40;12.70;;;;;;;;;;4434384;32;20274;-57
2021/12/06 11:02:54;;;;;;;36.00;15.60;;;;;;;;;;4433984;32;20212;-57
2021/12/06 11:05:25;;;;;;;35.73;17.20;;;;;;;;;;4433431;32;20633;-57
2021/12/06 11:08:12;;;;;;;21.93;11.70;;;;;;;;;;4434238;32;20483;-56
2021/12/06 11:10:47;;;;;;;22.43;12.63;;;;;;;;;;4433017;32;20308;-55
2021/12/06 11:13:23;;;;;;;24.33;13.30;;;;;;;;;;4433866;32;20349;-56
2021/12/06 11:15:54;;;;;;;25.97;13.17;;;;;;;;;;4434389;32;20298;-57
2021/12/06 11:18:39;;;;;;;30.80;16.07;;;;;;;;;;4419661;32;20269;-55
2021/12/06 11:21:16;;;;;;;32.10;19.40;;;;;;;;;;4418795;32;20638;-57
2021/12/06 11:24:18;;;;;;;55.77;24.97;;;;;;;;;;4422855;32;20278;-56
2021/12/06 11:26:49;;;;;;;106.90;44.93;;;;;;;;;;4395004;32;20577;-57
2021/12/06 11:29:21;;;;;;;24.00;12.03;;;;;;;;;;4433560;32;20228;-57
2021/12/06 11:31:54;;;;;;;25.57;13.47;;;;;;;;;;4434714;32;20256;-56
2021/12/06 11:34:20;;;;;;;17.30;8.30;;;;;;;;;;4434308;32;20185;-56
2021/12/06 11:36:46;;;;;;;14.90;9.40;;;;;;;;;;4434735;32;20685;-57
2021/12/06 11:39:17;;;;;;;37.43;20.67;;;;;;;;;;4419154;32;20406;-56
2021/12/06 11:41:48;;;;;;;13.07;8.30;;;;;;;;;;4432435;32;20263;-56
2021/12/06 11:44:30;;;;;;;13.47;11.13;;;;;;;;;;4432614;32;20660;-56
2021/12/06 11:47:02;;;;;;;24.30;17.63;;;;;;;;;;4432319;32;20221;-56
2021/12/06 11:49:41;;;;;;;22.70;12.07;;;;;;;;;;4433613;32;20201;-56
2021/12/06 11:52:11;;;;;;;14.47;9.33;;;;;;;;;;4434589;32;20609;-56
2021/12/06 11:54:57;;;;;;;23.03;11.90;;;;;;;;;;4419847;32;20560;-56
2021/12/06 11:57:33;;;;;;;20.03;11.23;;;;;;;;;;4434577;32;20301;-56
2021/12/06 12:00:11;;;;;;;21.83;13.97;;;;;;;;;;4434557;32;20232;-57
2021/12/06 12:02:42;;;;;;;18.40;10.13;;;;;;;;;;4434275;32;20220;-56
2021/12/06 12:05:20;;;;;;;23.87;12.00;;;;;;;;;;4434056;32;20236;-57
2021/12/06 12:08:11;;;;;;;21.33;11.17;;;;;;;;;;4434153;32;20260;-58
2021/12/06 12:10:45;;;;;;;22.60;11.47;;;;;;;;;;4434157;32;20221;-57
2021/12/06 12:13:14;;;;;;;33.03;14.80;;;;;;;;;;4434051;32;20652;-56
2021/12/06 12:15:40;;;;;;;24.10;11.30;;;;;;;;;;4434504;32;20229;-57
2021/12/06 12:18:06;;;;;;;34.57;10.80;;;;;;;;;;4433507;32;20314;-56
2021/12/06 12:20:35;;;;;;;63.97;26.87;;;;;;;;;;4434120;32;20248;-58
2021/12/06 12:23:05;;;;;;;54.93;19.57;;;;;;;;;;4434070;32;20274;-56
2021/12/06 12:25:37;;;;;;;37.67;15.20;;;;;;;;;;4417109;32;20236;-57
2021/12/06 12:30:36;;;;;;;14.53;8.43;;;;;;;;;;4425510;32;20274;-58
2021/12/06 12:33:03;;;;;;;21.23;10.37;;;;;;;;;;4417865;32;20217;-57
2021/12/06 12:35:30;;;;;;;32.10;13.77;;;;;;;;;;4418021;32;20724;-57
2021/12/06 12:37:56;;;;;;;35.23;14.73;;;;;;;;;;4404522;32;20527;-57
2021/12/06 12:40:25;;;;;;;48.70;18.67;;;;;;;;;;4418335;32;20538;-56
2021/12/06 12:43:00;;;;;;;47.57;21.30;;;;;;;;;;4422785;32;20228;-56
2021/12/06 12:45:35;;;;;;;23.77;9.80;;;;;;;;;;4433661;32;20236;-56
2021/12/06 12:48:00;;;;;;;4.40;2.90;;;;;;;;;;4419278;32;20579;-57
2021/12/06 12:50:30;;;;;;;15.60;7.67;;;;;;;;;;4433743;32;20241;-56
2021/12/06 12:52:59;;;;;;;15.97;10.53;;;;;;;;;;4434084;32;20204;-57
2021/12/06 12:55:28;;;;;;;67.80;29.30;;;;;;;;;;4433117;32;20236;-56
2021/12/06 12:58:08;;;;;;;79.70;35.00;;;;;;;;;;4433766;32;20200;-56
2021/12/06 13:00:44;;;;;;;110.73;46.70;;;;;;;;;;4433677;32;20474;-56
2021/12/06 13:03:41;;;;;;;25.53;15.20;;;;;;;;;;4433453;32;20212;-56
2021/12/06 13:06:18;;;;;;;32.30;17.20;;;;;;;;;;4433146;32;20251;-56
2021/12/06 13:08:44;;;;;;;30.03;17.37;;;;;;;;;;4433724;32;20255;-56
2021/12/06 13:11:10;;;;;;;80.23;33.50;;;;;;;;;;4433525;32;20282;-55
2021/12/06 13:13:44;;;;;;;19.37;11.50;;;;;;;;;;4433687;32;20583;-56
2021/12/06 13:16:56;;;;;;;27.10;14.93;;;;;;;;;;4433320;32;20212;-57
2021/12/06 13:22:06;;;;;;;31.50;17.80;;;;;;;;;;4432448;32;20262;-56
2021/12/06 13:24:42;;;;;;;32.03;17.53;;;;;;;;;;4433000;32;20251;-56
2021/12/06 13:27:40;;;;;;;30.93;17.10;;;;;;;;;;4419279;32;20224;-57
2021/12/06 13:30:06;;;;;;;26.87;13.87;;;;;;;;;;4432428;32;20354;-57
2021/12/06 13:32:33;;;;;;;26.40;14.40;;;;;;;;;;4432100;32;20240;-57
2021/12/06 13:35:31;;;;;;;180.23;85.13;;;;;;;;;;4433893;32;20248;-57
2021/12/06 13:38:02;;;;;;;58.00;27.60;;;;;;;;;;4433387;32;20201;-57
2021/12/06 13:40:29;;;;;;;26.03;15.70;;;;;;;;;;4428990;32;20263;-57
2021/12/06 13:42:54;;;;;;;54.67;25.30;;;;;;;;;;4428295;32;20255;-57
2021/12/06 13:45:23;;;;;;;28.50;15.23;;;;;;;;;;4430085;32;20629;-56
2021/12/06 13:48:08;;;;;;;47.53;21.97;;;;;;;;;;4432918;32;20644;-56
2021/12/06 13:50:33;;;;;;;52.60;27.27;;;;;;;;;;4433196;32;20535;-58
2021/12/06 13:53:00;;;;;;;51.97;31.57;;;;;;;;;;4433292;32;20231;-57
2021/12/06 13:55:30;;;;;;;64.93;42.20;;;;;;;;;;4432874;32;20707;-56
2021/12/06 13:58:08;;;;;;;68.50;45.40;;;;;;;;;;4433647;32;20272;-56
2021/12/06 14:00:46;;;;;;;74.03;44.77;;;;;;;;;;4423066;32;20224;-56
2021/12/06 14:03:15;;;;;;;75.80;45.40;;;;;;;;;;4435669;32;20208;-57
2021/12/06 14:05:46;;;;;;;163.87;95.13;;;;;;;;;;4435598;32;20624;-57
2021/12/06 14:08:20;;;;;;;93.00;55.87;;;;;;;;;;4435727;32;20223;-56
2021/12/06 14:10:47;;;;;;;53.07;31.07;;;;;;;;;;4435839;32;20276;-56
2021/12/06 14:13:13;;;;;;;52.00;31.23;;;;;;;;;;4435451;32;20322;-56
2021/12/06 14:18:17;;;;;;;54.90;31.63;;;;;;;;;;4435810;32;20648;-56
2021/12/06 14:20:55;;;;;;;49.83;31.50;;;;;;;;;;4436554;32;20263;-57
2021/12/06 14:23:22;;;;;;;51.20;30.63;;;;;;;;;;4436039;32;20216;-57
2021/12/06 14:25:51;;;;;;;52.47;31.30;;;;;;;;;;4436750;32;20445;-56
2021/12/06 14:28:19;;;;;;;43.53;27.53;;;;;;;;;;4435909;32;20272;-57
2021/12/06 14:30:45;;;;;;;47.83;30.43;;;;;;;;;;4436331;32;20225;-57
2021/12/06 14:33:12;;;;;;;67.37;40.20;;;;;;;;;;4435953;32;20271;-57
2021/12/06 14:35:38;;;;;;;67.23;41.50;;;;;;;;;;4422219;32;20314;-56
2021/12/06 14:38:04;;;;;;;70.33;40.80;;;;;;;;;;4435981;32;20602;-56
2021/12/06 14:40:29;;;;;;;67.70;40.70;;;;;;;;;;4435765;32;20550;-56
2021/12/06 14:42:56;;;;;;;75.03;42.97;;;;;;;;;;4435899;32;20239;-57
2021/12/06 14:45:24;;;;;;;73.30;42.60;;;;;;;;;;4421603;32;20237;-56
2021/12/06 14:47:59;;;;;;;64.77;38.60;;;;;;;;;;4434367;32;20603;-56
2021/12/06 14:50:50;;;;;;;75.00;44.33;;;;;;;;;;4435809;32;20216;-57
2021/12/06 14:53:22;;;;;;;102.57;52.33;;;;;;;;;;4435947;32;20209;-56
2021/12/06 14:55:55;;;;;;;127.33;64.33;;;;;;;;;;4436218;32;20290;-56
2021/12/06 14:58:34;;;;;;;138.50;69.70;;;;;;;;;;4435939;32;20511;-57